createdAt,value
2019-05-28T00:00:32.225Z,13.70
2019-05-28T00:02:33.885Z,13.70
2019-05-28T00:04:35.565Z,13.70
2019-05-28T00:06:37.240Z,13.70
2019-05-28T00:08:39.242Z,13.70
2019-05-28T00:10:40.922Z,13.70
2019-05-28T00:12:42.590Z,13.70
2019-05-28T00:14:44.262Z,13.70
2019-05-28T00:16:46.272Z,13.70
2019-05-28T00:18:47.930Z,13.70
2019-05-28T00:20:49.877Z,13.70
2019-05-28T00:22:51.825Z,13.60
2019-05-28T00:24:53.494Z,13.60
2019-05-28T00:26:55.148Z,13.60
2019-05-28T00:28:56.809Z,13.70
2019-05-28T00:30:58.553Z,13.70
2019-05-28T00:33:00.230Z,13.70
2019-05-28T00:35:01.911Z,13.70
2019-05-28T00:37:03.605Z,13.70
2019-05-28T00:39:06.501Z,13.70
2019-05-28T00:41:08.176Z,13.70
2019-05-28T00:43:10.189Z,13.70
2019-05-28T00:45:11.871Z,13.70
2019-05-28T00:47:13.545Z,13.70
2019-05-28T00:49:15.217Z,13.70
2019-05-28T00:51:17.212Z,13.60
2019-05-28T00:53:18.882Z,13.60
2019-05-28T00:55:20.567Z,13.60
2019-05-28T00:57:22.576Z,13.60
2019-05-28T00:59:24.241Z,13.60
2019-05-28T01:01:26.185Z,13.60
2019-05-28T01:03:27.849Z,13.60
2019-05-28T01:05:29.529Z,13.60
2019-05-28T01:07:31.197Z,13.60
2019-05-28T01:09:32.865Z,13.70
2019-05-28T01:11:34.857Z,13.70
2019-05-28T01:13:36.521Z,13.70
2019-05-28T01:15:38.465Z,13.70
2019-05-28T01:17:40.133Z,13.60
2019-05-28T01:19:41.815Z,13.70
2019-05-28T01:21:43.938Z,13.70
2019-05-28T01:23:45.602Z,13.70
2019-05-28T01:25:47.272Z,13.70
2019-05-28T01:27:48.941Z,13.80
2019-05-28T01:29:50.613Z,13.70
2019-05-28T01:31:52.283Z,13.70
2019-05-28T01:33:53.949Z,13.70
2019-05-28T01:35:55.629Z,13.70
2019-05-28T01:37:57.293Z,13.70
2019-05-28T01:39:58.965Z,13.70
2019-05-28T01:42:00.661Z,13.70
2019-05-28T01:44:02.627Z,13.70
2019-05-28T01:46:04.292Z,13.70
2019-05-28T01:48:05.973Z,13.70
2019-05-28T01:50:07.636Z,13.70
2019-05-28T01:52:09.301Z,13.70
2019-05-28T01:54:10.970Z,13.70
2019-05-28T01:56:12.647Z,13.70
2019-05-28T01:58:14.320Z,13.70
2019-05-28T02:00:16.121Z,13.70
2019-05-28T02:02:17.791Z,13.70
2019-05-28T02:04:19.452Z,13.70
2019-05-28T02:06:21.122Z,13.60
2019-05-28T02:08:22.789Z,13.60
2019-05-28T02:10:24.472Z,13.50
2019-05-28T02:12:26.141Z,13.50
2019-05-28T02:14:28.101Z,13.50
2019-05-28T02:16:30.041Z,13.50
2019-05-28T02:18:31.709Z,13.40
2019-05-28T02:20:33.461Z,13.40
2019-05-28T02:22:35.131Z,13.40
2019-05-28T02:24:36.801Z,13.40
2019-05-28T02:26:38.467Z,13.40
2019-05-28T02:28:40.133Z,13.40
2019-05-28T02:30:42.151Z,13.40
2019-05-28T02:32:43.831Z,13.40
2019-05-28T02:34:45.879Z,13.40
2019-05-28T02:36:47.554Z,13.40
2019-05-28T02:38:49.561Z,13.30
2019-05-28T02:40:51.246Z,13.30
2019-05-28T02:42:52.912Z,13.30
2019-05-28T02:44:54.840Z,13.30
2019-05-28T02:46:56.534Z,13.30
2019-05-28T02:48:58.517Z,13.30
2019-05-28T02:51:03.739Z,13.20
2019-05-28T02:53:05.461Z,13.10
2019-05-28T02:55:07.132Z,13.10
2019-05-28T02:57:08.809Z,13.00
2019-05-28T02:59:14.490Z,13.00
2019-05-28T03:01:16.170Z,13.00
2019-05-28T03:03:18.404Z,12.90
2019-05-28T03:05:20.078Z,12.90
2019-05-28T03:07:21.737Z,12.90
2019-05-28T03:09:24.333Z,12.90
2019-05-28T03:11:26.345Z,12.80
2019-05-28T03:13:28.096Z,12.70
2019-05-28T03:15:30.072Z,12.60
2019-05-28T03:17:32.117Z,12.50
2019-05-28T03:19:33.769Z,12.50
2019-05-28T03:21:35.509Z,12.40
2019-05-28T03:23:37.592Z,12.40
2019-05-28T03:25:39.253Z,12.30
2019-05-28T03:27:40.921Z,12.30
2019-05-28T03:29:42.606Z,12.30
2019-05-28T03:32:02.912Z,12.30
2019-05-28T03:33:47.850Z,12.40
2019-05-28T03:35:49.514Z,12.40
2019-05-28T03:37:51.216Z,12.30
2019-05-28T03:39:52.881Z,12.30
2019-05-28T03:41:54.564Z,12.30
2019-05-28T03:43:56.216Z,12.30
2019-05-28T03:45:57.890Z,12.40
2019-05-28T03:47:59.843Z,12.40
2019-05-28T03:50:01.655Z,12.40
2019-05-28T03:52:03.326Z,12.40
2019-05-28T03:54:05.053Z,12.40
2019-05-28T03:56:06.787Z,12.30
2019-05-28T03:58:08.814Z,12.30
2019-05-28T04:00:10.490Z,12.30
2019-05-28T04:02:23.061Z,12.30
2019-05-28T04:04:15.750Z,12.20
2019-05-28T04:06:17.417Z,12.10
2019-05-28T04:08:19.080Z,12.20
2019-05-28T04:10:21.078Z,12.10
2019-05-28T04:12:22.754Z,12.10
2019-05-28T04:14:24.426Z,12.10
2019-05-28T04:16:26.099Z,12.20
2019-05-28T04:18:27.777Z,12.20
2019-05-28T04:20:29.445Z,12.20
2019-05-28T04:22:31.216Z,12.30
2019-05-28T04:24:33.605Z,12.40
2019-05-28T04:26:35.279Z,12.40
2019-05-28T04:28:37.066Z,12.40
2019-05-28T04:30:38.737Z,12.40
2019-05-28T04:32:41.519Z,12.40
2019-05-28T04:34:43.406Z,12.50
2019-05-28T04:36:45.078Z,12.50
2019-05-28T04:38:46.756Z,12.50
2019-05-28T04:40:48.420Z,12.50
2019-05-28T04:42:50.389Z,12.50
2019-05-28T04:44:52.053Z,12.50
2019-05-28T04:46:53.728Z,12.60
2019-05-28T04:48:55.645Z,12.60
2019-05-28T04:50:57.301Z,12.60
2019-05-28T04:52:58.981Z,12.70
2019-05-28T04:55:00.913Z,12.70
2019-05-28T04:57:02.839Z,12.70
2019-05-28T04:59:04.761Z,12.80
2019-05-28T05:01:06.709Z,12.90
2019-05-28T05:03:08.388Z,12.90
2019-05-28T05:05:10.075Z,13.00
2019-05-28T05:07:11.846Z,13.10
2019-05-28T05:09:13.830Z,13.20
2019-05-28T05:11:15.533Z,13.10
2019-05-28T05:13:17.607Z,13.20
2019-05-28T05:15:19.272Z,13.20
2019-05-28T05:17:20.954Z,13.20
2019-05-28T05:19:22.718Z,13.10
2019-05-28T05:21:24.390Z,13.20
2019-05-28T05:23:26.380Z,13.10
2019-05-28T05:25:28.141Z,13.20
2019-05-28T05:27:29.901Z,13.30
2019-05-28T05:29:31.590Z,13.40
2019-05-28T05:31:33.448Z,13.40
2019-05-28T05:33:35.127Z,13.50
2019-05-28T05:35:37.049Z,13.50
2019-05-28T05:37:38.721Z,13.60
2019-05-28T05:39:40.400Z,13.60
2019-05-28T05:41:42.370Z,13.60
2019-05-28T05:43:44.045Z,13.50
2019-05-28T05:45:45.848Z,13.40
2019-05-28T05:47:47.622Z,13.40
2019-05-28T05:49:49.279Z,13.50
2019-05-28T05:51:50.954Z,13.50
2019-05-28T05:53:52.632Z,13.60
2019-05-28T05:56:13.974Z,13.70
2019-05-28T05:58:15.654Z,13.80
2019-05-28T06:00:17.313Z,13.80
2019-05-28T06:02:19.020Z,13.90
2019-05-28T06:04:20.766Z,13.80
2019-05-28T06:06:22.435Z,13.80
2019-05-28T06:08:24.215Z,13.70
2019-05-28T06:10:25.880Z,13.70
2019-05-28T06:12:27.874Z,13.80
2019-05-28T06:14:29.557Z,14.00
2019-05-28T06:16:31.233Z,14.20
2019-05-28T06:18:32.909Z,14.30
2019-05-28T06:20:34.579Z,14.70
2019-05-28T06:22:36.541Z,15.00
2019-05-28T06:24:38.476Z,15.00
2019-05-28T06:26:40.421Z,15.30
2019-05-28T06:28:42.108Z,15.50
2019-05-28T06:30:43.774Z,15.50
2019-05-28T06:32:45.442Z,15.60
2019-05-28T06:34:47.113Z,15.80
2019-05-28T06:36:49.130Z,16.00
2019-05-28T06:38:51.086Z,16.00
2019-05-28T06:40:52.754Z,16.00
2019-05-28T06:42:54.424Z,16.40
2019-05-28T06:44:56.178Z,16.80
2019-05-28T06:46:58.177Z,17.00
2019-05-28T06:48:59.871Z,17.30
2019-05-28T06:51:01.538Z,17.40
2019-05-28T06:53:03.197Z,17.70
2019-05-28T06:55:04.901Z,17.90
2019-05-28T06:57:21.921Z,18.00
2019-05-28T06:59:10.386Z,18.20
2019-05-28T07:01:12.146Z,18.20
2019-05-28T07:03:13.952Z,18.50
2019-05-28T07:05:15.632Z,18.70
2019-05-28T07:07:17.305Z,18.60
2019-05-28T07:09:18.977Z,18.80
2019-05-28T07:11:20.651Z,18.80
2019-05-28T07:13:22.313Z,18.90
2019-05-28T07:15:23.999Z,18.70
2019-05-28T07:17:25.664Z,18.50
2019-05-28T07:19:27.337Z,18.20
2019-05-28T07:21:29.072Z,18.20
2019-05-28T07:23:30.783Z,18.20
2019-05-28T07:25:32.572Z,18.20
2019-05-28T07:27:34.538Z,18.10
2019-05-28T07:29:36.219Z,18.20
2019-05-28T07:31:37.877Z,18.10
2019-05-28T07:33:39.549Z,18.30
2019-05-28T07:35:45.729Z,18.50
2019-05-28T07:37:44.791Z,18.70
2019-05-28T07:39:46.470Z,18.90
2019-05-28T07:41:48.138Z,19.00
2019-05-28T07:43:49.805Z,18.70
2019-05-28T07:45:51.494Z,19.00
2019-05-28T07:47:53.174Z,19.00
2019-05-28T07:49:54.849Z,19.10
2019-05-28T07:51:56.524Z,19.20
2019-05-28T07:53:58.285Z,19.10
2019-05-28T07:56:00.027Z,19.40
2019-05-28T07:58:01.866Z,19.60
2019-05-28T08:00:06.047Z,19.80
2019-05-28T08:02:08.189Z,19.70
2019-05-28T08:04:09.865Z,19.90
2019-05-28T08:06:11.541Z,19.80
2019-05-28T08:08:15.986Z,20.00
2019-05-28T08:10:17.730Z,19.60
2019-05-28T08:12:19.414Z,19.80
2019-05-28T08:14:21.429Z,19.80
2019-05-28T08:16:24.227Z,19.90
2019-05-28T08:18:26.571Z,20.20
2019-05-28T08:20:28.257Z,20.60
2019-05-28T08:22:41.566Z,20.50
2019-05-28T08:24:33.777Z,20.90
2019-05-28T08:26:35.736Z,20.60
2019-05-28T08:28:37.406Z,20.80
2019-05-28T08:30:39.077Z,20.90
2019-05-28T08:32:40.750Z,20.80
2019-05-28T08:34:42.433Z,20.70
2019-05-28T08:36:44.108Z,20.60
2019-05-28T08:38:45.780Z,21.00
2019-05-28T08:40:47.889Z,21.00
2019-05-28T08:42:52.054Z,21.00
2019-05-28T08:44:53.817Z,21.00
2019-05-28T08:46:55.496Z,20.90
2019-05-28T08:48:57.161Z,20.80
2019-05-28T08:50:58.848Z,21.30
2019-05-28T08:53:00.854Z,21.10
2019-05-28T08:55:02.691Z,20.90
2019-05-28T09:00:39.624Z,20.30
2019-05-28T09:05:57.345Z,20.50
2019-05-28T09:07:59.012Z,20.60
2019-05-28T09:10:00.689Z,20.20
2019-05-28T09:12:02.357Z,20.00
2019-05-28T09:14:04.026Z,19.60
2019-05-28T09:16:05.704Z,19.40
2019-05-28T09:18:07.523Z,19.20
2019-05-28T09:20:09.415Z,18.80
2019-05-28T09:22:24.681Z,18.90
2019-05-28T09:24:15.449Z,18.60
2019-05-28T09:26:17.114Z,18.50
2019-05-28T09:28:29.057Z,18.20
2019-05-28T09:30:22.584Z,18.20
2019-05-28T09:32:24.266Z,18.20
2019-05-28T09:34:26.035Z,18.20
2019-05-28T09:36:27.709Z,18.20
2019-05-28T09:38:29.377Z,18.20
2019-05-28T09:40:48.562Z,18.20
2019-05-28T09:42:34.941Z,18.20
2019-05-28T09:44:36.619Z,18.20
2019-05-28T09:46:38.306Z,18.20
2019-05-28T09:48:39.978Z,18.00
2019-05-28T09:50:41.665Z,18.00
2019-05-28T09:52:54.613Z,18.10
2019-05-28T09:54:46.909Z,17.90
2019-05-28T09:56:48.598Z,18.10
2019-05-28T09:58:50.461Z,18.10
2019-05-28T10:00:58.099Z,18.10
2019-05-28T10:02:57.293Z,18.20
2019-05-28T10:04:59.234Z,18.20
2019-05-28T10:07:01.000Z,18.20
2019-05-28T10:09:04.200Z,18.30
2019-05-28T10:11:05.869Z,18.70
2019-05-28T10:13:07.529Z,19.10
2019-05-28T10:15:09.197Z,19.40
2019-05-28T10:17:11.114Z,19.80
2019-05-28T10:19:12.773Z,20.30
2019-05-28T10:21:18.812Z,20.30
2019-05-28T10:23:18.025Z,20.60
2019-05-28T10:25:19.766Z,20.70
2019-05-28T10:27:21.807Z,21.40
2019-05-28T10:29:23.958Z,21.70
2019-05-28T10:31:25.638Z,22.40
2019-05-28T10:33:27.304Z,22.00
2019-05-28T10:35:29.169Z,21.90
2019-05-28T10:37:30.850Z,22.60
2019-05-28T10:39:32.517Z,23.10
2019-05-28T10:41:34.199Z,23.20
2019-05-28T10:43:36.149Z,22.90
2019-05-28T10:45:37.852Z,23.40
2019-05-28T10:47:39.600Z,22.60
2019-05-28T10:49:41.269Z,22.90
2019-05-28T10:51:42.954Z,23.20
2019-05-28T10:53:44.614Z,23.70
2019-05-28T10:55:46.294Z,24.00
2019-05-28T10:57:47.962Z,24.40
2019-05-28T10:59:49.629Z,24.30
2019-05-28T11:01:51.414Z,23.70
2019-05-28T11:03:53.141Z,23.50
2019-05-28T11:05:54.825Z,22.90
2019-05-28T11:07:56.789Z,22.40
2019-05-28T11:09:58.465Z,22.10
2019-05-28T11:12:00.217Z,21.80
2019-05-28T11:14:01.881Z,21.50
2019-05-28T11:16:04.243Z,21.50
2019-05-28T11:18:06.065Z,21.50
2019-05-28T11:20:08.450Z,21.50
2019-05-28T11:22:10.122Z,21.50
2019-05-28T11:24:11.793Z,21.60
2019-05-28T11:26:13.477Z,21.80
2019-05-28T11:28:15.151Z,22.30
2019-05-28T11:30:16.814Z,22.60
2019-05-28T11:32:18.494Z,22.70
2019-05-28T11:34:20.157Z,22.60
2019-05-28T11:36:22.077Z,22.40
2019-05-28T11:38:23.732Z,22.30
2019-05-28T11:40:25.397Z,21.90
2019-05-28T11:42:27.339Z,21.80
2019-05-28T11:44:29.012Z,21.60
2019-05-28T11:46:30.697Z,21.50
2019-05-28T11:48:32.373Z,21.30
2019-05-28T11:50:34.079Z,20.90
2019-05-28T11:52:35.885Z,20.90
2019-05-28T11:54:37.633Z,20.90
2019-05-28T11:56:39.320Z,20.80
2019-05-28T11:58:41.069Z,20.30
2019-05-28T12:00:42.953Z,20.00
2019-05-28T12:02:44.641Z,20.20
2019-05-28T12:04:46.401Z,20.20
2019-05-28T12:06:48.086Z,20.10
2019-05-28T12:08:49.751Z,20.10
2019-05-28T12:10:51.415Z,19.90
2019-05-28T12:12:53.076Z,20.00
2019-05-28T12:14:54.741Z,20.00
2019-05-28T12:16:56.745Z,20.10
2019-05-28T12:18:58.581Z,20.20
2019-05-28T12:21:00.582Z,20.20
2019-05-28T12:23:11.403Z,20.30
2019-05-28T12:25:05.852Z,20.30
2019-05-28T12:27:07.524Z,20.40
2019-05-28T12:29:09.193Z,20.40
2019-05-28T12:31:10.870Z,20.40
2019-05-28T12:33:12.547Z,20.50
2019-05-28T12:35:27.450Z,20.30
2019-05-28T12:37:17.786Z,20.00
2019-05-28T12:39:19.454Z,19.70
2019-05-28T12:41:21.121Z,20.00
2019-05-28T12:43:22.790Z,20.00
2019-05-28T12:45:35.162Z,19.90
2019-05-28T12:47:28.050Z,20.00
2019-05-28T12:49:29.712Z,20.00
2019-05-28T12:51:31.793Z,19.80
2019-05-28T12:53:49.284Z,19.80
2019-05-28T12:55:37.070Z,19.60
2019-05-28T12:57:38.756Z,19.80
2019-05-28T12:59:40.425Z,19.90
2019-05-28T13:01:42.421Z,20.20
2019-05-28T13:03:44.188Z,20.20
2019-05-28T13:05:45.850Z,20.20
2019-05-28T13:08:06.260Z,20.20
2019-05-28T13:09:51.106Z,20.20
2019-05-28T13:11:52.810Z,20.10
2019-05-28T13:13:54.861Z,20.10
2019-05-28T13:15:56.530Z,20.00
2019-05-28T13:17:58.215Z,20.00
2019-05-28T13:19:59.977Z,20.00
2019-05-28T13:22:01.642Z,20.20
2019-05-28T13:24:03.324Z,20.50
2019-05-28T13:26:04.991Z,20.40
2019-05-28T13:28:06.665Z,20.80
2019-05-28T13:30:08.625Z,20.80
2019-05-28T13:32:10.870Z,20.80
2019-05-28T13:34:12.528Z,20.80
2019-05-28T13:36:14.190Z,20.80
2019-05-28T13:38:26.322Z,20.50
2019-05-28T13:40:19.445Z,20.60
2019-05-28T13:42:21.123Z,20.20
2019-05-28T13:44:22.789Z,20.10
2019-05-28T13:46:24.487Z,20.30
2019-05-28T13:48:26.253Z,20.30
2019-05-28T13:50:29.509Z,20.30
2019-05-28T13:52:31.577Z,20.50
2019-05-28T13:54:33.537Z,20.90
2019-05-28T13:56:35.204Z,20.90
2019-05-28T13:58:36.894Z,21.20
2019-05-28T14:00:38.556Z,21.70
2019-05-28T14:02:40.242Z,22.30
2019-05-28T14:04:42.209Z,21.80
2019-05-28T14:06:44.776Z,21.80
2019-05-28T14:08:47.625Z,21.30
2019-05-28T14:10:49.443Z,20.70
2019-05-28T14:12:51.169Z,20.60
2019-05-28T14:14:53.083Z,20.50
2019-05-28T14:16:54.745Z,20.30
2019-05-28T14:18:56.428Z,20.30
2019-05-28T14:20:58.101Z,20.30
2019-05-28T14:22:59.778Z,20.20
2019-05-28T14:25:01.491Z,20.10
2019-05-28T14:27:03.228Z,20.00
2019-05-28T14:29:04.997Z,19.90
2019-05-28T14:31:06.986Z,19.90
2019-05-28T14:33:08.669Z,19.70
2019-05-28T14:35:10.340Z,19.60
2019-05-28T14:37:12.337Z,19.50
2019-05-28T14:39:14.011Z,19.60
2019-05-28T14:41:15.774Z,19.30
2019-05-28T14:43:17.837Z,19.30
2019-05-28T14:45:19.602Z,19.30
2019-05-28T14:47:21.621Z,19.20
2019-05-28T14:49:23.284Z,19.20
2019-05-28T14:51:24.955Z,19.20
2019-05-28T14:53:26.634Z,19.30
2019-05-28T14:55:28.306Z,19.40
2019-05-28T14:57:29.991Z,19.10
2019-05-28T14:59:31.937Z,18.90
2019-05-28T15:01:33.621Z,18.90
2019-05-28T15:03:35.297Z,18.90
2019-05-28T15:05:36.962Z,18.80
2019-05-28T15:07:38.652Z,18.80
2019-05-28T15:09:40.446Z,18.70
2019-05-28T15:11:42.205Z,18.70
2019-05-28T15:13:43.880Z,18.70
2019-05-28T15:15:45.545Z,18.60
2019-05-28T15:17:47.215Z,18.70
2019-05-28T15:19:48.892Z,18.80
2019-05-28T15:21:50.567Z,18.70
2019-05-28T15:23:52.262Z,18.50
2019-05-28T15:25:54.029Z,18.50
2019-05-28T15:27:55.704Z,18.40
2019-05-28T15:29:57.396Z,18.40
2019-05-28T15:31:59.150Z,18.40
2019-05-28T15:34:00.821Z,18.30
2019-05-28T15:36:02.506Z,18.40
2019-05-28T15:38:04.269Z,18.20
2019-05-28T15:40:06.245Z,18.20
2019-05-28T15:42:08.033Z,18.00
2019-05-28T15:44:09.816Z,18.00
2019-05-28T15:46:11.486Z,18.00
2019-05-28T15:48:13.154Z,18.00
2019-05-28T15:50:14.825Z,17.80
2019-05-28T15:52:16.498Z,17.80
2019-05-28T15:54:18.491Z,17.80
2019-05-28T15:56:20.154Z,17.70
2019-05-28T15:58:22.093Z,17.70
2019-05-28T16:00:23.777Z,17.70
2019-05-28T16:02:25.442Z,17.60
2019-05-28T16:04:27.109Z,17.70
2019-05-28T16:06:28.776Z,17.60
2019-05-28T16:08:30.441Z,17.60
2019-05-28T16:10:32.122Z,17.50
2019-05-28T16:12:34.067Z,17.50
2019-05-28T16:14:35.754Z,17.60
2019-05-28T16:16:37.426Z,17.60
2019-05-28T16:18:39.093Z,17.40
2019-05-28T16:20:40.769Z,17.50
2019-05-28T16:22:42.437Z,17.50
2019-05-28T16:24:44.118Z,17.60
2019-05-28T16:26:45.786Z,17.50
2019-05-28T16:28:47.461Z,17.50
2019-05-28T16:30:49.139Z,17.50
2019-05-28T16:32:50.807Z,17.60
2019-05-28T16:34:52.488Z,17.50
2019-05-28T16:36:54.154Z,17.50
2019-05-28T16:38:55.832Z,17.50
2019-05-28T16:40:57.608Z,17.50
2019-05-28T16:42:59.274Z,17.40
2019-05-28T16:45:00.958Z,17.30
2019-05-28T16:47:16.157Z,17.20
2019-05-28T16:49:06.262Z,17.20
2019-05-28T16:51:07.937Z,17.20
2019-05-28T16:53:09.601Z,17.10
2019-05-28T16:55:11.281Z,17.10
2019-05-28T16:57:12.955Z,17.10
2019-05-28T16:59:14.626Z,17.00
2019-05-28T17:01:22.440Z,16.90
2019-05-28T17:03:20.387Z,16.90
2019-05-28T17:05:22.068Z,16.80
2019-05-28T17:07:23.729Z,16.80
2019-05-28T17:09:25.386Z,16.80
2019-05-28T17:11:28.366Z,16.80
2019-05-28T17:13:31.101Z,16.80
2019-05-28T17:15:35.133Z,16.70
2019-05-28T17:17:36.795Z,16.60
2019-05-28T17:19:39.429Z,16.70
2019-05-28T17:21:41.101Z,16.60
2019-05-28T17:23:42.769Z,16.60
2019-05-28T17:25:44.446Z,16.50
2019-05-28T17:27:46.117Z,16.50
2019-05-28T17:29:50.570Z,16.40
2019-05-28T17:31:51.646Z,16.40
2019-05-28T17:33:53.313Z,16.40
2019-05-28T17:35:57.416Z,16.50
2019-05-28T17:37:58.564Z,16.30
2019-05-28T17:40:00.250Z,16.40
2019-05-28T17:42:01.916Z,16.40
2019-05-28T17:44:03.874Z,16.40
2019-05-28T17:46:05.550Z,16.40
2019-05-28T17:48:07.269Z,16.40
2019-05-28T17:50:09.137Z,16.40
2019-05-28T17:52:10.806Z,16.40
2019-05-28T17:54:12.474Z,16.30
2019-05-28T17:56:14.157Z,16.30
2019-05-28T17:58:15.821Z,16.30
2019-05-28T18:00:17.801Z,16.20
2019-05-28T18:02:19.811Z,16.10
2019-05-28T18:04:21.530Z,16.10
2019-05-28T18:06:23.209Z,16.00
2019-05-28T18:08:24.925Z,16.00
2019-05-28T18:10:26.607Z,16.00
2019-05-28T18:12:28.273Z,16.00
2019-05-28T18:14:29.945Z,15.90
2019-05-28T18:16:31.630Z,15.90
2019-05-28T18:18:33.292Z,15.80
2019-05-28T18:20:34.970Z,15.80
2019-05-28T18:22:36.650Z,15.70
2019-05-28T18:24:38.650Z,15.60
2019-05-28T18:26:40.334Z,15.60
2019-05-28T18:28:42.001Z,15.50
2019-05-28T18:30:43.676Z,15.50
2019-05-28T18:32:45.669Z,15.40
2019-05-28T18:34:47.350Z,15.40
2019-05-28T18:36:49.022Z,15.20
2019-05-28T18:38:50.694Z,15.20
2019-05-28T18:40:52.384Z,15.20
2019-05-28T18:42:54.834Z,15.20
2019-05-28T18:44:57.122Z,15.10
2019-05-28T18:46:58.814Z,15.00
2019-05-28T18:49:00.819Z,14.90
2019-05-28T18:51:02.497Z,14.90
2019-05-28T18:53:04.165Z,14.80
2019-05-28T18:55:05.962Z,14.70
2019-05-28T18:57:07.673Z,14.70
2019-05-28T18:59:09.712Z,14.70
2019-05-28T19:01:11.488Z,14.60
2019-05-28T19:03:13.468Z,14.60
2019-05-28T19:05:15.153Z,14.50
2019-05-28T19:07:16.852Z,14.50
2019-05-28T19:09:18.524Z,14.40
2019-05-28T19:11:20.205Z,14.40
2019-05-28T19:13:21.869Z,14.40
2019-05-28T19:15:23.550Z,14.40
2019-05-28T19:17:25.365Z,14.30
2019-05-28T19:19:27.275Z,14.20
2019-05-28T19:21:28.948Z,14.20
2019-05-28T19:23:30.629Z,14.10
2019-05-28T19:25:32.301Z,14.20
2019-05-28T19:27:35.588Z,14.20
2019-05-28T19:29:37.554Z,14.10
2019-05-28T19:31:39.329Z,14.10
2019-05-28T19:33:41.341Z,14.00
2019-05-28T19:35:43.346Z,14.00
2019-05-28T19:37:45.023Z,14.00
2019-05-28T19:39:46.691Z,14.00
2019-05-28T19:41:54.105Z,14.00
2019-05-28T19:43:51.991Z,14.00
2019-05-28T19:45:53.733Z,13.90
2019-05-28T19:47:55.693Z,13.90
2019-05-28T19:49:57.360Z,13.90
2019-05-28T19:51:59.034Z,13.90
2019-05-28T19:54:01.253Z,13.90
2019-05-28T19:56:02.937Z,13.70
2019-05-28T19:58:04.717Z,13.80
2019-05-28T20:00:07.498Z,13.80
2019-05-28T20:02:09.169Z,13.70
2019-05-28T20:04:10.833Z,13.60
2019-05-28T20:06:12.513Z,13.60
2019-05-28T20:08:14.194Z,13.60
2019-05-28T20:10:15.952Z,13.60
2019-05-28T20:12:17.958Z,13.50
2019-05-28T20:14:19.622Z,13.50
2019-05-28T20:16:21.594Z,13.40
2019-05-28T20:18:26.641Z,13.50
2019-05-28T20:20:26.858Z,13.50
2019-05-28T20:22:28.533Z,13.40
2019-05-28T20:24:30.202Z,13.40
2019-05-28T20:26:31.882Z,13.30
2019-05-28T20:28:33.578Z,13.30
2019-05-28T20:30:35.333Z,13.30
2019-05-28T20:32:37.009Z,13.30
2019-05-28T20:34:38.678Z,13.10
2019-05-28T20:36:40.352Z,13.10
2019-05-28T20:38:42.029Z,13.10
2019-05-28T20:40:43.706Z,13.10
2019-05-28T20:42:45.482Z,13.00
2019-05-28T20:44:47.162Z,13.00
2019-05-28T20:46:49.233Z,13.00
2019-05-28T20:48:50.901Z,13.00
2019-05-28T20:51:07.047Z,12.90
2019-05-28T20:52:56.442Z,12.90
2019-05-28T20:54:59.140Z,12.90
2019-05-28T20:57:01.091Z,12.90
2019-05-28T20:59:02.754Z,12.90
2019-05-28T21:01:04.439Z,12.90
2019-05-28T21:03:06.141Z,12.70
2019-05-28T21:05:07.909Z,12.70
2019-05-28T21:07:09.593Z,12.70
2019-05-28T21:09:13.010Z,12.50
2019-05-28T21:11:14.821Z,12.50
2019-05-28T21:13:16.933Z,12.50
2019-05-28T21:15:19.221Z,12.50
2019-05-28T21:17:21.153Z,12.50
2019-05-28T21:19:23.107Z,12.40
2019-05-28T21:21:24.870Z,12.40
2019-05-28T21:23:26.549Z,12.40
2019-05-28T21:25:28.221Z,12.40
2019-05-28T21:27:29.992Z,12.30
2019-05-28T21:29:32.040Z,12.30
2019-05-28T21:31:33.794Z,12.30
2019-05-28T21:33:35.481Z,12.20
2019-05-28T21:35:37.149Z,12.30
2019-05-28T21:37:39.145Z,12.20
2019-05-28T21:39:41.085Z,12.20
2019-05-28T21:41:42.764Z,12.20
2019-05-28T21:43:44.445Z,12.10
2019-05-28T21:45:46.117Z,12.00
2019-05-28T21:47:48.106Z,12.00
2019-05-28T21:49:49.774Z,12.00
2019-05-28T21:51:52.662Z,12.00
2019-05-28T21:53:54.792Z,11.90
2019-05-28T21:55:57.222Z,11.90
2019-05-28T21:57:59.880Z,11.90
2019-05-28T22:00:02.346Z,11.90
2019-05-28T22:02:04.794Z,11.90
2019-05-28T22:04:07.696Z,11.90
2019-05-28T22:06:09.765Z,11.90
2019-05-28T22:08:11.445Z,11.90
2019-05-28T22:10:13.113Z,11.70
2019-05-28T22:12:14.785Z,11.80
2019-05-28T22:14:16.457Z,11.70
2019-05-28T22:16:18.120Z,11.70
2019-05-28T22:18:19.809Z,11.70
2019-05-28T22:20:21.472Z,11.70
2019-05-28T22:22:23.147Z,11.60
2019-05-28T22:24:24.822Z,11.70
2019-05-28T22:26:26.489Z,11.60
2019-05-28T22:28:28.264Z,11.60
2019-05-28T22:30:29.942Z,11.60
2019-05-28T22:32:31.621Z,11.60
2019-05-28T22:34:33.293Z,11.60
2019-05-28T22:36:35.228Z,11.60
2019-05-28T22:38:36.910Z,11.60
2019-05-28T22:40:38.565Z,11.50
2019-05-28T22:42:40.554Z,11.40
2019-05-28T22:44:42.234Z,11.50
2019-05-28T22:46:44.394Z,11.40
2019-05-28T22:48:46.369Z,11.40
2019-05-28T22:50:48.041Z,11.40
2019-05-28T22:52:49.825Z,11.40
2019-05-28T22:54:51.833Z,11.40
2019-05-28T22:56:53.501Z,11.40
2019-05-28T22:58:55.550Z,11.30
2019-05-28T23:00:58.351Z,11.30
2019-05-28T23:03:00.889Z,11.30
2019-05-28T23:05:03.205Z,11.30
2019-05-28T23:07:05.443Z,11.20
2019-05-28T23:09:07.762Z,11.20
2019-05-28T23:11:09.909Z,11.20
2019-05-28T23:13:11.712Z,11.20
2019-05-28T23:15:14.968Z,11.20
2019-05-28T23:17:16.643Z,11.10
2019-05-28T23:19:18.317Z,11.10
2019-05-28T23:21:20.481Z,11.10
2019-05-28T23:23:22.437Z,11.00
2019-05-28T23:25:24.100Z,11.00
2019-05-28T23:27:25.775Z,11.00
2019-05-28T23:29:27.696Z,11.00
2019-05-28T23:31:29.365Z,11.00
2019-05-28T23:33:31.034Z,10.90
2019-05-28T23:35:32.700Z,10.90
2019-05-28T23:37:34.395Z,10.80
2019-05-28T23:39:36.072Z,10.80
2019-05-28T23:41:37.742Z,10.80
2019-05-28T23:43:39.418Z,10.80
2019-05-28T23:45:41.277Z,10.80
2019-05-28T23:47:42.954Z,10.90
2019-05-28T23:49:44.634Z,10.80
2019-05-28T23:51:46.297Z,10.80
2019-05-28T23:53:48.245Z,10.80
2019-05-28T23:55:49.896Z,10.80
2019-05-28T23:57:51.569Z,10.70
2019-05-28T23:59:53.305Z,10.70
